Terminal Aerodrome Forecast
Issued by NWS El Paso, TX

Home | Current Version | Previous Version | Text Only | Print | Product List | Glossary On
Versions: 1 2 3 4 5 6 7 8 9 10 11 12 13 14 15
000
FTUS44 KEPZ 312100 AAA
TAFELP
TAF AMD
KELP 312150Z 3122/0118 24007KT P6SM VCSH SCT026 BKN045
     FM010000 24007KT P6SM VCSH BKN026 OVC050
     FM010400 24006KT P6SM VCSH SCT040 BKN090
     FM011000 24006KT P6SM SCT020 BKN040
     FM011600 31008KT P6SM BKN025=

USA.gov is the U.S. government's official web portal to all federal, state and local government web resources and services.